sensor_id;sensor_type;location;lat;lon;timestamp;pressure;altitude;pressure_sealevel;temperature;humidity
56514;BME280;62152;52.078;8.414;2022-08-16T00:00:41;99244.94;;;24.14;53.34
56514;BME280;62152;52.078;8.414;2022-08-16T00:02:28;99253.25;;;24.14;53.36
56514;BME280;62152;52.078;8.414;2022-08-16T00:04:14;99249.69;;;24.14;53.36
56514;BME280;62152;52.078;8.414;2022-08-16T00:05:59;99251.25;;;24.15;53.45
56514;BME280;62152;52.078;8.414;2022-08-16T00:07:44;99249.69;;;24.14;53.32
56514;BME280;62152;52.078;8.414;2022-08-16T00:09:30;99248.91;;;24.13;53.23
56514;BME280;62152;52.078;8.414;2022-08-16T00:11:16;99248.91;;;24.13;53.20
56514;BME280;62152;52.078;8.414;2022-08-16T00:13:05;99240.63;;;24.13;53.24
56514;BME280;62152;52.078;8.414;2022-08-16T00:14:56;99235.06;;;24.13;53.40
56514;BME280;62152;52.078;8.414;2022-08-16T00:16:43;99235.06;;;24.13;53.38
56514;BME280;62152;52.078;8.414;2022-08-16T00:18:29;99235.06;;;24.13;53.51
56514;BME280;62152;52.078;8.414;2022-08-16T00:20:14;99228.75;;;24.13;53.60
56514;BME280;62152;52.078;8.414;2022-08-16T00:22:00;99229.53;;;24.13;53.42
56514;BME280;62152;52.078;8.414;2022-08-16T00:23:45;99232.31;;;24.13;53.42
56514;BME280;62152;52.078;8.414;2022-08-16T00:25:31;99231.53;;;24.13;53.25
56514;BME280;62152;52.078;8.414;2022-08-16T00:27:16;99229.53;;;24.13;53.21
56514;BME280;62152;52.078;8.414;2022-08-16T00:29:02;99229.97;;;24.12;53.39
56514;BME280;62152;52.078;8.414;2022-08-16T00:30:51;99233.53;;;24.12;53.60
56514;BME280;62152;52.078;8.414;2022-08-16T00:32:38;99239.84;;;24.13;53.33
56514;BME280;62152;52.078;8.414;2022-08-16T00:34:24;99232.31;;;24.13;53.17
56514;BME280;62152;52.078;8.414;2022-08-16T00:36:11;99229.53;;;24.13;53.07
56514;BME280;62152;52.078;8.414;2022-08-16T00:37:56;99234.28;;;24.13;53.21
56514;BME280;62152;52.078;8.414;2022-08-16T00:39:44;99235.06;;;24.13;53.36
56514;BME280;62152;52.078;8.414;2022-08-16T00:41:31;99239.84;;;24.13;53.17
56514;BME280;62152;52.078;8.414;2022-08-16T00:43:30;99240.63;;;24.13;53.29
56514;BME280;62152;52.078;8.414;2022-08-16T00:45:36;99239.06;;;24.12;53.24
56514;BME280;62152;52.078;8.414;2022-08-16T00:47:27;99237.06;;;24.13;53.37
56514;BME280;62152;52.078;8.414;2022-08-16T00:49:12;99241.81;;;24.12;53.36
56514;BME280;62152;52.078;8.414;2022-08-16T00:50:59;99243.03;;;24.11;53.33
56514;BME280;62152;52.078;8.414;2022-08-16T00:52:45;99230.75;;;24.12;53.20
56514;BME280;62152;52.078;8.414;2022-08-16T00:54:31;99243.03;;;24.11;53.17
56514;BME280;62152;52.078;8.414;2022-08-16T00:56:21;99243.03;;;24.11;53.22
56514;BME280;62152;52.078;8.414;2022-08-16T00:58:10;99238.28;;;24.12;53.24
56514;BME280;62152;52.078;8.414;2022-08-16T00:59:56;99245.81;;;24.11;53.43
56514;BME280;62152;52.078;8.414;2022-08-16T01:01:43;99243.03;;;24.11;53.32
56514;BME280;62152;52.078;8.414;2022-08-16T01:03:32;99247.38;;;24.12;53.37
56514;BME280;62152;52.078;8.414;2022-08-16T01:05:18;99243.03;;;24.11;53.37
56514;BME280;62152;52.078;8.414;2022-08-16T01:07:05;99243.03;;;24.11;53.41
56514;BME280;62152;52.078;8.414;2022-08-16T01:08:56;99239.06;;;24.12;53.38
56514;BME280;62152;52.078;8.414;2022-08-16T01:10:42;99240.28;;;24.11;53.25
56514;BME280;62152;52.078;8.414;2022-08-16T01:12:28;99245.81;;;24.11;53.21
56514;BME280;62152;52.078;8.414;2022-08-16T01:14:18;99244.25;;;24.10;53.40
56514;BME280;62152;52.078;8.414;2022-08-16T01:16:13;99245.03;;;24.11;53.33
56514;BME280;62152;52.078;8.414;2022-08-16T01:18:05;99254.13;;;24.11;53.45
56514;BME280;62152;52.078;8.414;2022-08-16T01:19:59;99253.34;;;24.11;53.54
56514;BME280;62152;52.078;8.414;2022-08-16T01:21:53;99251.78;;;24.10;53.54
56514;BME280;62152;52.078;8.414;2022-08-16T01:23:59;99255.34;;;24.10;53.41
56514;BME280;62152;52.078;8.414;2022-08-16T01:25:54;99258.09;;;24.10;53.38
56514;BME280;62152;52.078;8.414;2022-08-16T01:27:46;99260.09;;;24.10;53.24
56514;BME280;62152;52.078;8.414;2022-08-16T01:29:39;99252.56;;;24.10;53.39
56514;BME280;62152;52.078;8.414;2022-08-16T01:31:29;99252.56;;;24.10;53.11
56514;BME280;62152;52.078;8.414;2022-08-16T01:33:16;99256.56;;;24.09;53.11
56514;BME280;62152;52.078;8.414;2022-08-16T01:35:10;99262.09;;;24.09;53.34
56514;BME280;62152;52.078;8.414;2022-08-16T01:37:05;99254.56;;;24.10;53.38
56514;BME280;62152;52.078;8.414;2022-08-16T01:38:56;99260.09;;;24.10;53.06
56514;BME280;62152;52.078;8.414;2022-08-16T01:40:41;99262.09;;;24.09;53.14
56514;BME280;62152;52.078;8.414;2022-08-16T01:42:26;99252.19;;;24.08;53.39
56514;BME280;62152;52.078;8.414;2022-08-16T01:44:13;99258.50;;;24.09;53.11
56514;BME280;62152;52.078;8.414;2022-08-16T01:46:00;99256.56;;;24.09;53.37
56514;BME280;62152;52.078;8.414;2022-08-16T01:47:50;99260.09;;;24.10;52.97
56514;BME280;62152;52.078;8.414;2022-08-16T01:49:39;99257.72;;;24.08;53.21
56514;BME280;62152;52.078;8.414;2022-08-16T01:51:27;99260.09;;;24.10;53.41
56514;BME280;62152;52.078;8.414;2022-08-16T01:53:13;99263.28;;;24.08;53.49
56514;BME280;62152;52.078;8.414;2022-08-16T01:55:20;99260.50;;;24.08;53.21
56514;BME280;62152;52.078;8.414;2022-08-16T01:57:08;99258.94;;;24.07;53.29
56514;BME280;62152;52.078;8.414;2022-08-16T01:58:58;99261.28;;;24.09;53.50
56514;BME280;62152;52.078;8.414;2022-08-16T02:00:44;99260.50;;;24.08;53.25
56514;BME280;62152;52.078;8.414;2022-08-16T02:02:30;99255.75;;;24.09;53.18
56514;BME280;62152;52.078;8.414;2022-08-16T02:04:15;99260.50;;;24.08;53.21
56514;BME280;62152;52.078;8.414;2022-08-16T02:06:01;99260.50;;;24.08;53.06
56514;BME280;62152;52.078;8.414;2022-08-16T02:07:46;99262.09;;;24.09;53.08
56514;BME280;62152;52.078;8.414;2022-08-16T02:09:32;99258.50;;;24.09;53.07
56514;BME280;62152;52.078;8.414;2022-08-16T02:11:18;99255.75;;;24.09;52.96
56514;BME280;62152;52.078;8.414;2022-08-16T02:13:06;99262.50;;;24.08;53.28
56514;BME280;62152;52.078;8.414;2022-08-16T02:14:51;99254.97;;;24.08;53.02
56514;BME280;62152;52.078;8.414;2022-08-16T02:16:37;99252.19;;;24.08;53.20
56514;BME280;62152;52.078;8.414;2022-08-16T02:18:25;99260.50;;;24.08;53.12
56514;BME280;62152;52.078;8.414;2022-08-16T02:20:10;99260.50;;;24.08;53.22
56514;BME280;62152;52.078;8.414;2022-08-16T02:21:58;99255.75;;;24.09;53.38
56514;BME280;62152;52.078;8.414;2022-08-16T02:23:45;99254.97;;;24.08;53.04
56514;BME280;62152;52.078;8.414;2022-08-16T02:25:31;99249.44;;;24.08;53.08
56514;BME280;62152;52.078;8.414;2022-08-16T02:27:19;99260.50;;;24.08;53.14
56514;BME280;62152;52.078;8.414;2022-08-16T02:29:05;99254.97;;;24.08;53.24
56514;BME280;62152;52.078;8.414;2022-08-16T02:30:51;99254.19;;;24.08;53.05
56514;BME280;62152;52.078;8.414;2022-08-16T02:32:38;99252.19;;;24.08;53.11
56514;BME280;62152;52.078;8.414;2022-08-16T02:34:31;99248.66;;;24.08;53.06
56514;BME280;62152;52.078;8.414;2022-08-16T02:36:16;99254.97;;;24.08;53.06
56514;BME280;62152;52.078;8.414;2022-08-16T02:38:03;99248.31;;;24.06;53.05
56514;BME280;62152;52.078;8.414;2022-08-16T02:39:46;99253.41;;;24.07;53.13
56514;BME280;62152;52.078;8.414;2022-08-16T02:41:32;99258.94;;;24.07;53.15
56514;BME280;62152;52.078;8.414;2022-08-16T02:43:20;99249.88;;;24.07;53.33
56514;BME280;62152;52.078;8.414;2022-08-16T02:45:06;99252.63;;;24.07;52.93
56514;BME280;62152;52.078;8.414;2022-08-16T02:46:52;99253.41;;;24.07;53.06
56514;BME280;62152;52.078;8.414;2022-08-16T02:48:38;99258.94;;;24.07;52.85
56514;BME280;62152;52.078;8.414;2022-08-16T02:50:24;99263.28;;;24.08;53.19
56514;BME280;62152;52.078;8.414;2022-08-16T02:52:10;99250.63;;;24.07;53.15
56514;BME280;62152;52.078;8.414;2022-08-16T02:53:55;99256.97;;;24.08;52.84
56514;BME280;62152;52.078;8.414;2022-08-16T02:55:39;99259.72;;;24.08;53.21
56514;BME280;62152;52.078;8.414;2022-08-16T02:57:25;99254.97;;;24.08;53.07
56514;BME280;62152;52.078;8.414;2022-08-16T02:59:14;99258.94;;;24.07;52.91
56514;BME280;62152;52.078;8.414;2022-08-16T03:00:59;99254.19;;;24.08;52.94
56514;BME280;62152;52.078;8.414;2022-08-16T03:02:45;99253.41;;;24.07;53.04
56514;BME280;62152;52.078;8.414;2022-08-16T03:04:31;99251.84;;;24.06;53.15
56514;BME280;62152;52.078;8.414;2022-08-16T03:06:17;99251.06;;;24.06;53.36
56514;BME280;62152;52.078;8.414;2022-08-16T03:08:03;99260.16;;;24.06;53.29
56514;BME280;62152;52.078;8.414;2022-08-16T03:09:54;99251.84;;;24.06;52.97
56514;BME280;62152;52.078;8.414;2022-08-16T03:11:41;99256.19;;;24.07;53.13
56514;BME280;62152;52.078;8.414;2022-08-16T03:13:26;99250.63;;;24.07;52.79
56514;BME280;62152;52.078;8.414;2022-08-16T03:15:16;99249.88;;;24.07;52.80
56514;BME280;62152;52.078;8.414;2022-08-16T03:17:03;99252.28;;;24.05;53.01
56514;BME280;62152;52.078;8.414;2022-08-16T03:18:50;99247.09;;;24.07;52.96
56514;BME280;62152;52.078;8.414;2022-08-16T03:20:37;99238.78;;;24.07;52.96
56514;BME280;62152;52.078;8.414;2022-08-16T03:22:23;99240.78;;;24.06;52.87
56514;BME280;62152;52.078;8.414;2022-08-16T03:24:09;99241.56;;;24.07;53.11
56514;BME280;62152;52.078;8.414;2022-08-16T03:25:55;99240.34;;;24.08;52.93
56514;BME280;62152;52.078;8.414;2022-08-16T03:27:41;99236.78;;;24.07;52.94
56514;BME280;62152;52.078;8.414;2022-08-16T03:29:32;99240.00;;;24.06;53.25
56514;BME280;62152;52.078;8.414;2022-08-16T03:31:21;99239.66;;;24.04;53.12
56514;BME280;62152;52.078;8.414;2022-08-16T03:33:06;99238.50;;;24.01;53.04
56514;BME280;62152;52.078;8.414;2022-08-16T03:34:59;99234.69;;;23.95;52.56
56514;BME280;62152;52.078;8.414;2022-08-16T03:36:44;99232.06;;;23.88;52.53
56514;BME280;62152;52.078;8.414;2022-08-16T03:38:31;99230.16;;;23.85;52.04
56514;BME280;62152;52.078;8.414;2022-08-16T03:40:18;99233.81;;;23.82;51.93
56514;BME280;62152;52.078;8.414;2022-08-16T03:42:04;99232.22;;;23.81;51.83
56514;BME280;62152;52.078;8.414;2022-08-16T03:43:49;99235.00;;;23.81;52.02
56514;BME280;62152;52.078;8.414;2022-08-16T03:45:39;99235.13;;;23.73;51.63
56514;BME280;62152;52.078;8.414;2022-08-16T03:47:27;99226.16;;;23.69;51.49
56514;BME280;62152;52.078;8.414;2022-08-16T03:49:12;99238.84;;;23.67;51.31
56514;BME280;62152;52.078;8.414;2022-08-16T03:51:04;99232.53;;;23.66;51.39
56514;BME280;62152;52.078;8.414;2022-08-16T03:52:57;99238.94;;;23.63;51.39
56514;BME280;62152;52.078;8.414;2022-08-16T03:54:43;99240.13;;;23.62;51.35
56514;BME280;62152;52.078;8.414;2022-08-16T03:56:29;99242.47;;;23.64;51.27
56514;BME280;62152;52.078;8.414;2022-08-16T03:58:15;99242.16;;;23.58;51.44
56514;BME280;62152;52.078;8.414;2022-08-16T04:00:06;99248.19;;;23.53;51.72
56514;BME280;62152;52.078;8.414;2022-08-16T04:01:59;99253.03;;;23.49;51.96
56514;BME280;62152;52.078;8.414;2022-08-16T04:03:48;99249.75;;;23.54;51.56
56514;BME280;62152;52.078;8.414;2022-08-16T04:05:35;99247.63;;;23.42;52.05
56514;BME280;62152;52.078;8.414;2022-08-16T04:07:21;99251.09;;;23.46;51.65
56514;BME280;62152;52.078;8.414;2022-08-16T04:09:06;99248.25;;;23.50;51.52
56514;BME280;62152;52.078;8.414;2022-08-16T04:10:54;99260.31;;;23.59;51.48
56514;BME280;62152;52.078;8.414;2022-08-16T04:12:42;99253.97;;;23.62;51.21
56514;BME280;62152;52.078;8.414;2022-08-16T04:14:29;99259.00;;;23.67;51.07
56514;BME280;62152;52.078;8.414;2022-08-16T04:16:14;99261.28;;;23.72;51.04
56514;BME280;62152;52.078;8.414;2022-08-16T04:18:01;99258.88;;;23.74;51.00
56514;BME280;62152;52.078;8.414;2022-08-16T04:19:49;99259.22;;;23.77;51.21
56514;BME280;62152;52.078;8.414;2022-08-16T04:21:35;99261.56;;;23.78;51.14
56514;BME280;62152;52.078;8.414;2022-08-16T04:23:20;99262.34;;;23.79;50.99
56514;BME280;62152;52.078;8.414;2022-08-16T04:25:10;99261.13;;;23.80;51.23
56514;BME280;62152;52.078;8.414;2022-08-16T04:26:56;99251.59;;;23.81;51.26
56514;BME280;62152;52.078;8.414;2022-08-16T04:28:42;99264.25;;;23.82;51.28
56514;BME280;62152;52.078;8.414;2022-08-16T04:30:28;99265.03;;;23.82;51.24
56514;BME280;62152;52.078;8.414;2022-08-16T04:32:10;99265.81;;;23.83;51.10
56514;BME280;62152;52.078;8.414;2022-08-16T04:33:55;99268.16;;;23.84;51.20
56514;BME280;62152;52.078;8.414;2022-08-16T04:35:43;99268.16;;;23.84;51.05
56514;BME280;62152;52.078;8.414;2022-08-16T04:37:28;99274.47;;;23.85;51.33
56514;BME280;62152;52.078;8.414;2022-08-16T04:39:24;99271.69;;;23.85;51.13
56514;BME280;62152;52.078;8.414;2022-08-16T04:41:10;99281.56;;;23.86;51.11
56514;BME280;62152;52.078;8.414;2022-08-16T04:42:56;99283.13;;;23.87;51.22
56514;BME280;62152;52.078;8.414;2022-08-16T04:44:44;99283.13;;;23.87;51.31
56514;BME280;62152;52.078;8.414;2022-08-16T04:46:30;99272.03;;;23.87;51.34
56514;BME280;62152;52.078;8.414;2022-08-16T04:48:17;99283.91;;;23.87;51.35
56514;BME280;62152;52.078;8.414;2022-08-16T04:50:12;99283.91;;;23.87;51.38
56514;BME280;62152;52.078;8.414;2022-08-16T04:52:37;99282.72;;;23.88;51.17
56514;BME280;62152;52.078;8.414;2022-08-16T04:54:23;99279.13;;;23.88;51.41
56514;BME280;62152;52.078;8.414;2022-08-16T04:56:08;99286.25;;;23.89;51.47
56514;BME280;62152;52.078;8.414;2022-08-16T04:57:55;99289.03;;;23.89;51.37
56514;BME280;62152;52.078;8.414;2022-08-16T04:59:42;99287.03;;;23.89;51.27
56514;BME280;62152;52.078;8.414;2022-08-16T05:01:27;99290.59;;;23.90;51.23
56514;BME280;62152;52.078;8.414;2022-08-16T05:03:12;99291.38;;;23.90;51.32
56514;BME280;62152;52.078;8.414;2022-08-16T05:05:00;99290.59;;;23.90;51.33
56514;BME280;62152;52.078;8.414;2022-08-16T05:06:46;99294.91;;;23.91;51.48
56514;BME280;62152;52.078;8.414;2022-08-16T05:08:44;99297.69;;;23.91;51.52
56514;BME280;62152;52.078;8.414;2022-08-16T05:10:36;99294.91;;;23.91;51.39
56514;BME280;62152;52.078;8.414;2022-08-16T05:12:21;99297.25;;;23.92;51.47
56514;BME280;62152;52.078;8.414;2022-08-16T05:14:07;99294.91;;;23.91;51.41
56514;BME280;62152;52.078;8.414;2022-08-16T05:15:53;99293.72;;;23.92;51.38
56514;BME280;62152;52.078;8.414;2022-08-16T05:17:41;99302.78;;;23.92;51.35
56514;BME280;62152;52.078;8.414;2022-08-16T05:19:29;99299.25;;;23.92;51.43
56514;BME280;62152;52.078;8.414;2022-08-16T05:21:26;99303.56;;;23.93;51.54
56514;BME280;62152;52.078;8.414;2022-08-16T05:23:13;99306.34;;;23.93;51.43
56514;BME280;62152;52.078;8.414;2022-08-16T05:25:06;99305.13;;;23.94;51.36
56514;BME280;62152;52.078;8.414;2022-08-16T05:26:57;99305.13;;;23.94;51.59
56514;BME280;62152;52.078;8.414;2022-08-16T05:28:44;99306.69;;;23.95;51.56
56514;BME280;62152;52.078;8.414;2022-08-16T05:30:29;99306.69;;;23.95;51.45
56514;BME280;62152;52.078;8.414;2022-08-16T05:32:15;99308.28;;;23.96;51.49
56514;BME280;62152;52.078;8.414;2022-08-16T05:34:01;99306.69;;;23.95;51.52
56514;BME280;62152;52.078;8.414;2022-08-16T05:35:49;99308.28;;;23.96;51.41
56514;BME280;62152;52.078;8.414;2022-08-16T05:37:42;99311.03;;;23.96;51.55
56514;BME280;62152;52.078;8.414;2022-08-16T05:39:30;99308.28;;;23.96;51.42
56514;BME280;62152;52.078;8.414;2022-08-16T05:41:18;99310.59;;;23.97;51.40
56514;BME280;62152;52.078;8.414;2022-08-16T05:43:05;99305.84;;;23.98;51.54
56514;BME280;62152;52.078;8.414;2022-08-16T05:44:51;99316.94;;;23.98;51.53
56514;BME280;62152;52.078;8.414;2022-08-16T05:46:36;99314.94;;;23.98;51.43
56514;BME280;62152;52.078;8.414;2022-08-16T05:48:30;99324.81;;;23.99;51.31
56514;BME280;62152;52.078;8.414;2022-08-16T05:50:19;99318.03;;;24.00;51.36
56514;BME280;62152;52.078;8.414;2022-08-16T05:52:06;99318.81;;;24.01;51.57
56514;BME280;62152;52.078;8.414;2022-08-16T05:53:52;99329.91;;;24.01;51.59
56514;BME280;62152;52.078;8.414;2022-08-16T05:55:37;99322.38;;;24.01;51.52
56514;BME280;62152;52.078;8.414;2022-08-16T05:57:25;99317.66;;;24.02;51.36
56514;BME280;62152;52.078;8.414;2022-08-16T05:59:11;99324.75;;;24.03;51.28
56514;BME280;62152;52.078;8.414;2022-08-16T06:00:56;99324.75;;;24.03;51.37
56514;BME280;62152;52.078;8.414;2022-08-16T06:02:42;99324.75;;;24.03;51.51
56514;BME280;62152;52.078;8.414;2022-08-16T06:04:53;99324.75;;;24.03;51.51
56514;BME280;62152;52.078;8.414;2022-08-16T06:06:39;99331.84;;;24.04;51.43
56514;BME280;62152;52.078;8.414;2022-08-16T06:08:26;99323.97;;;24.02;51.43
56514;BME280;62152;52.078;8.414;2022-08-16T06:10:12;99328.72;;;24.02;51.52
56514;BME280;62152;52.078;8.414;2022-08-16T06:11:58;99330.28;;;24.03;51.57
56514;BME280;62152;52.078;8.414;2022-08-16T06:13:46;99328.72;;;24.02;51.39
56514;BME280;62152;52.078;8.414;2022-08-16T06:15:37;99327.13;;;24.01;51.50
56514;BME280;62152;52.078;8.414;2022-08-16T06:17:22;99327.91;;;24.01;51.46
56514;BME280;62152;52.078;8.414;2022-08-16T06:19:08;99331.50;;;24.02;51.39
56514;BME280;62152;52.078;8.414;2022-08-16T06:21:00;99332.63;;;24.05;51.31
56514;BME280;62152;52.078;8.414;2022-08-16T06:22:45;99331.06;;;24.04;51.48
56514;BME280;62152;52.078;8.414;2022-08-16T06:24:31;99338.16;;;24.05;51.44
56514;BME280;62152;52.078;8.414;2022-08-16T06:26:17;99342.91;;;24.04;51.45
56514;BME280;62152;52.078;8.414;2022-08-16T06:28:03;99342.91;;;24.04;51.45
56514;BME280;62152;52.078;8.414;2022-08-16T06:29:51;99341.38;;;24.03;51.54
56514;BME280;62152;52.078;8.414;2022-08-16T06:31:36;99342.91;;;24.04;51.44
56514;BME280;62152;52.078;8.414;2022-08-16T06:33:22;99343.69;;;24.05;51.66
56514;BME280;62152;52.078;8.414;2022-08-16T06:35:08;99346.47;;;24.05;51.35
56514;BME280;62152;52.078;8.414;2022-08-16T06:36:57;99352.00;;;24.05;51.50
56514;BME280;62152;52.078;8.414;2022-08-16T06:38:43;99343.69;;;24.05;51.62
56514;BME280;62152;52.078;8.414;2022-08-16T06:40:35;99345.69;;;24.04;51.43
56514;BME280;62152;52.078;8.414;2022-08-16T06:42:20;99348.47;;;24.04;51.66
56514;BME280;62152;52.078;8.414;2022-08-16T06:44:18;99350.78;;;24.06;51.59
56514;BME280;62152;52.078;8.414;2022-08-16T06:46:11;99355.13;;;24.07;51.46
56514;BME280;62152;52.078;8.414;2022-08-16T06:48:07;99346.38;;;24.08;51.53
56514;BME280;62152;52.078;8.414;2022-08-16T06:49:54;99354.69;;;24.08;51.42
56514;BME280;62152;52.078;8.414;2022-08-16T06:51:48;99353.13;;;24.07;51.60
56514;BME280;62152;52.078;8.414;2022-08-16T06:53:38;99347.59;;;24.07;51.56
56514;BME280;62152;52.078;8.414;2022-08-16T06:55:23;99347.16;;;24.09;51.54
56514;BME280;62152;52.078;8.414;2022-08-16T06:57:10;99345.97;;;24.10;51.53
56514;BME280;62152;52.078;8.414;2022-08-16T06:58:55;99353.06;;;24.11;51.48
56514;BME280;62152;52.078;8.414;2022-08-16T07:00:45;99357.84;;;24.10;51.51
56514;BME280;62152;52.078;8.414;2022-08-16T07:02:34;99352.63;;;24.12;51.30
56514;BME280;62152;52.078;8.414;2022-08-16T07:04:20;99356.19;;;24.13;51.35
56514;BME280;62152;52.078;8.414;2022-08-16T07:06:06;99356.97;;;24.13;51.31
56514;BME280;62152;52.078;8.414;2022-08-16T07:07:56;99360.50;;;24.14;51.42
56514;BME280;62152;52.078;8.414;2022-08-16T07:09:45;99358.53;;;24.14;51.27
56514;BME280;62152;52.078;8.414;2022-08-16T07:11:30;99362.50;;;24.13;51.30
56514;BME280;62152;52.078;8.414;2022-08-16T07:13:16;99367.63;;;24.15;51.29
56514;BME280;62152;52.078;8.414;2022-08-16T07:15:01;99373.59;;;24.13;51.45
56514;BME280;62152;52.078;8.414;2022-08-16T07:16:48;99379.13;;;24.13;51.35
56514;BME280;62152;52.078;8.414;2022-08-16T07:18:35;99382.69;;;24.14;51.45
56514;BME280;62152;52.078;8.414;2022-08-16T07:20:20;99375.56;;;24.13;51.54
56514;BME280;62152;52.078;8.414;2022-08-16T07:22:09;99377.13;;;24.14;51.42
56514;BME280;62152;52.078;8.414;2022-08-16T07:23:55;99379.13;;;24.13;51.32
56514;BME280;62152;52.078;8.414;2022-08-16T07:25:41;99385.44;;;24.14;51.38
56514;BME280;62152;52.078;8.414;2022-08-16T07:27:27;99380.69;;;24.14;51.50
56514;BME280;62152;52.078;8.414;2022-08-16T07:29:14;99380.69;;;24.14;51.58
56514;BME280;62152;52.078;8.414;2022-08-16T07:30:59;99379.13;;;24.13;51.58
56514;BME280;62152;52.078;8.414;2022-08-16T07:32:53;99376.34;;;24.13;51.36
56514;BME280;62152;52.078;8.414;2022-08-16T07:34:41;99377.91;;;24.14;51.62
56514;BME280;62152;52.078;8.414;2022-08-16T07:36:26;99374.38;;;24.14;51.53
56514;BME280;62152;52.078;8.414;2022-08-16T07:38:12;99377.56;;;24.12;51.53
56514;BME280;62152;52.078;8.414;2022-08-16T07:40:06;99379.91;;;24.14;51.35
56514;BME280;62152;52.078;8.414;2022-08-16T07:41:52;99383.88;;;24.13;51.57
56514;BME280;62152;52.078;8.414;2022-08-16T07:43:37;99385.88;;;24.12;51.44
56514;BME280;62152;52.078;8.414;2022-08-16T07:45:23;99383.88;;;24.13;51.49
56514;BME280;62152;52.078;8.414;2022-08-16T07:47:08;99388.22;;;24.14;51.42
56514;BME280;62152;52.078;8.414;2022-08-16T07:48:54;99387.78;;;24.15;51.38
56514;BME280;62152;52.078;8.414;2022-08-16T07:50:43;99389.78;;;24.15;51.31
56514;BME280;62152;52.078;8.414;2022-08-16T07:52:29;99392.53;;;24.15;51.43
56514;BME280;62152;52.078;8.414;2022-08-16T07:54:15;99386.59;;;24.16;51.29
56514;BME280;62152;52.078;8.414;2022-08-16T07:56:02;99387.78;;;24.15;51.40
56514;BME280;62152;52.078;8.414;2022-08-16T07:57:52;99394.91;;;24.16;51.44
56514;BME280;62152;52.078;8.414;2022-08-16T07:59:37;99397.69;;;24.16;51.59
56514;BME280;62152;52.078;8.414;2022-08-16T08:01:24;99398.88;;;24.15;51.28
56514;BME280;62152;52.078;8.414;2022-08-16T08:03:12;99403.22;;;24.16;51.55
56514;BME280;62152;52.078;8.414;2022-08-16T08:04:58;99406.78;;;24.17;51.33
56514;BME280;62152;52.078;8.414;2022-08-16T08:06:46;99407.19;;;24.15;51.54
56514;BME280;62152;52.078;8.414;2022-08-16T08:08:33;99407.19;;;24.15;51.56
56514;BME280;62152;52.078;8.414;2022-08-16T08:10:18;99406.00;;;24.16;51.27
56514;BME280;62152;52.078;8.414;2022-08-16T08:12:05;99412.31;;;24.17;51.55
56514;BME280;62152;52.078;8.414;2022-08-16T08:13:56;99408.75;;;24.16;51.37
56514;BME280;62152;52.078;8.414;2022-08-16T08:15:43;99406.00;;;24.16;51.48
56514;BME280;62152;52.078;8.414;2022-08-16T08:17:28;99407.56;;;24.17;51.51
56514;BME280;62152;52.078;8.414;2022-08-16T08:19:15;99412.31;;;24.17;51.56
56514;BME280;62152;52.078;8.414;2022-08-16T08:21:02;99413.88;;;24.18;51.34
56514;BME280;62152;52.078;8.414;2022-08-16T08:22:52;99420.19;;;24.18;51.50
56514;BME280;62152;52.078;8.414;2022-08-16T08:24:40;99418.63;;;24.17;51.54
56514;BME280;62152;52.078;8.414;2022-08-16T08:26:26;99419.84;;;24.16;51.44
56514;BME280;62152;52.078;8.414;2022-08-16T08:28:11;99412.31;;;24.17;51.48
56514;BME280;62152;52.078;8.414;2022-08-16T08:29:58;99414.66;;;24.18;51.50
56514;BME280;62152;52.078;8.414;2022-08-16T08:31:43;99414.66;;;24.18;51.34
56514;BME280;62152;52.078;8.414;2022-08-16T08:33:29;99421.75;;;24.19;51.32
56514;BME280;62152;52.078;8.414;2022-08-16T08:35:14;99423.41;;;24.17;51.38
56514;BME280;62152;52.078;8.414;2022-08-16T08:37:00;99422.19;;;24.18;51.38
56514;BME280;62152;52.078;8.414;2022-08-16T08:38:54;99420.19;;;24.18;51.35
56514;BME280;62152;52.078;8.414;2022-08-16T08:40:40;99426.53;;;24.19;51.60
56514;BME280;62152;52.078;8.414;2022-08-16T08:42:28;99430.06;;;24.19;51.28
56514;BME280;62152;52.078;8.414;2022-08-16T08:44:14;99425.75;;;24.18;51.53
56514;BME280;62152;52.078;8.414;2022-08-16T08:45:59;99429.28;;;24.19;51.25
56514;BME280;62152;52.078;8.414;2022-08-16T08:47:45;99427.28;;;24.19;51.41
56514;BME280;62152;52.078;8.414;2022-08-16T08:49:31;99435.59;;;24.19;51.37
56514;BME280;62152;52.078;8.414;2022-08-16T08:51:17;99432.84;;;24.19;51.32
56514;BME280;62152;52.078;8.414;2022-08-16T08:53:07;99437.16;;;24.20;51.46
56514;BME280;62152;52.078;8.414;2022-08-16T08:54:56;99430.06;;;24.19;51.33
56514;BME280;62152;52.078;8.414;2022-08-16T08:56:46;99427.28;;;24.19;51.45
56514;BME280;62152;52.078;8.414;2022-08-16T08:58:42;99439.94;;;24.20;51.38
56514;BME280;62152;52.078;8.414;2022-08-16T09:00:34;99428.84;;;24.20;51.46
56514;BME280;62152;52.078;8.414;2022-08-16T09:02:21;99439.94;;;24.20;51.45
56514;BME280;62152;52.078;8.414;2022-08-16T09:04:10;99432.84;;;24.19;51.34
56514;BME280;62152;52.078;8.414;2022-08-16T09:05:55;99434.41;;;24.20;51.51
56514;BME280;62152;52.078;8.414;2022-08-16T09:07:40;99437.94;;;24.21;51.43
56514;BME280;62152;52.078;8.414;2022-08-16T09:09:26;99437.16;;;24.20;51.30
56514;BME280;62152;52.078;8.414;2022-08-16T09:11:14;99441.94;;;24.20;51.31
56514;BME280;62152;52.078;8.414;2022-08-16T09:13:01;99436.38;;;24.20;51.39
56514;BME280;62152;52.078;8.414;2022-08-16T09:14:55;99435.97;;;24.21;51.50
56514;BME280;62152;52.078;8.414;2022-08-16T09:16:43;99433.63;;;24.20;51.45
56514;BME280;62152;52.078;8.414;2022-08-16T09:18:28;99434.41;;;24.20;51.50
56514;BME280;62152;52.078;8.414;2022-08-16T09:20:13;99423.31;;;24.20;51.39
56514;BME280;62152;52.078;8.414;2022-08-16T09:21:59;99440.28;;;24.22;51.40
56514;BME280;62152;52.078;8.414;2022-08-16T09:23:45;99430.41;;;24.21;51.38
56514;BME280;62152;52.078;8.414;2022-08-16T09:25:31;99429.19;;;24.22;51.21
56514;BME280;62152;52.078;8.414;2022-08-16T09:27:20;99431.97;;;24.22;51.36
56514;BME280;62152;52.078;8.414;2022-08-16T09:29:07;99434.75;;;24.22;51.44
56514;BME280;62152;52.078;8.414;2022-08-16T09:30:52;99417.78;;;24.20;51.29